sensor_id;sensor_type;location;lat;lon;timestamp;noise_LAeq;noise_LA_min;noise_LA_max;noise_LA01;noise_LA95
72028;Laerm;59781;52.090;5.030;2023-04-08T00:01:26;38.80;36.69;56.38;;
72028;Laerm;59781;52.090;5.030;2023-04-08T00:03:52;38.23;36.53;41.14;;
72028;Laerm;59781;52.090;5.030;2023-04-08T00:06:18;38.41;36.49;42.89;;
72028;Laerm;59781;52.090;5.030;2023-04-08T00:08:44;39.09;36.69;45.91;;
72028;Laerm;59781;52.090;5.030;2023-04-08T00:11:09;38.93;36.35;45.65;;
72028;Laerm;59781;52.090;5.030;2023-04-08T00:13:35;38.56;36.42;43.25;;
72028;Laerm;59781;52.090;5.030;2023-04-08T00:16:01;39.70;36.47;48.46;;
72028;Laerm;59781;52.090;5.030;2023-04-08T00:18:27;38.32;36.66;40.65;;
72028;Laerm;59781;52.090;5.030;2023-04-08T00:20:54;38.73;36.62;43.43;;
72028;Laerm;59781;52.090;5.030;2023-04-08T00:23:21;43.78;36.30;76.82;;
72028;Laerm;59781;52.090;5.030;2023-04-08T00:25:47;40.18;36.66;59.23;;
72028;Laerm;59781;52.090;5.030;2023-04-08T00:28:13;40.14;37.07;48.50;;
72028;Laerm;59781;52.090;5.030;2023-04-08T00:30:38;38.81;36.79;42.51;;
72028;Laerm;59781;52.090;5.030;2023-04-08T00:33:04;38.61;36.97;41.00;;
72028;Laerm;59781;52.090;5.030;2023-04-08T00:35:30;39.63;36.99;47.94;;
72028;Laerm;59781;52.090;5.030;2023-04-08T00:37:56;39.29;37.27;44.21;;
72028;Laerm;59781;52.090;5.030;2023-04-08T00:40:24;39.69;37.48;46.36;;
72028;Laerm;59781;52.090;5.030;2023-04-08T00:42:50;39.21;37.21;41.41;;
72028;Laerm;59781;52.090;5.030;2023-04-08T00:45:16;38.84;36.47;40.57;;
72028;Laerm;59781;52.090;5.030;2023-04-08T00:47:42;39.57;36.90;65.84;;
72028;Laerm;59781;52.090;5.030;2023-04-08T00:50:08;39.67;37.05;45.76;;
72028;Laerm;59781;52.090;5.030;2023-04-08T00:52:35;38.89;36.58;43.07;;
72028;Laerm;59781;52.090;5.030;2023-04-08T00:55:01;39.01;36.90;46.57;;
72028;Laerm;59781;52.090;5.030;2023-04-08T00:57:27;39.24;36.94;46.89;;
72028;Laerm;59781;52.090;5.030;2023-04-08T00:59:53;38.68;36.85;46.07;;
72028;Laerm;59781;52.090;5.030;2023-04-08T01:05:35;41.70;36.96;65.22;;
72028;Laerm;59781;52.090;5.030;2023-04-08T01:08:07;39.05;36.78;44.99;;
72028;Laerm;59781;52.090;5.030;2023-04-08T01:10:38;39.42;37.09;47.10;;
72028;Laerm;59781;52.090;5.030;2023-04-08T01:13:13;38.92;36.80;46.87;;
72028;Laerm;59781;52.090;5.030;2023-04-08T01:15:43;38.83;36.65;45.22;;
72028;Laerm;59781;52.090;5.030;2023-04-08T01:18:13;39.14;36.76;47.63;;
72028;Laerm;59781;52.090;5.030;2023-04-08T01:20:42;38.87;36.82;49.16;;
72028;Laerm;59781;52.090;5.030;2023-04-08T01:23:56;39.67;36.52;48.61;;
72028;Laerm;59781;52.090;5.030;2023-04-08T01:26:25;38.47;36.60;41.59;;
72028;Laerm;59781;52.090;5.030;2023-04-08T01:28:59;38.80;36.75;44.27;;
72028;Laerm;59781;52.090;5.030;2023-04-08T01:31:27;38.51;36.67;40.84;;
72028;Laerm;59781;52.090;5.030;2023-04-08T01:33:56;38.68;37.12;40.35;;
72028;Laerm;59781;52.090;5.030;2023-04-08T01:36:25;38.53;36.89;40.01;;
72028;Laerm;59781;52.090;5.030;2023-04-08T01:38:53;38.41;36.64;40.04;;
72028;Laerm;59781;52.090;5.030;2023-04-08T01:41:20;38.69;36.79;43.37;;
72028;Laerm;59781;52.090;5.030;2023-04-08T01:43:48;38.62;36.69;50.44;;
72028;Laerm;59781;52.090;5.030;2023-04-08T01:46:16;40.41;37.01;50.53;;
72028;Laerm;59781;52.090;5.030;2023-04-08T01:48:43;38.37;36.23;39.96;;
72028;Laerm;59781;52.090;5.030;2023-04-08T01:51:11;39.04;36.39;45.88;;
72028;Laerm;59781;52.090;5.030;2023-04-08T01:53:37;39.62;36.91;45.43;;
72028;Laerm;59781;52.090;5.030;2023-04-08T01:56:12;38.73;36.54;42.19;;
72028;Laerm;59781;52.090;5.030;2023-04-08T01:58:51;39.09;36.69;44.60;;
72028;Laerm;59781;52.090;5.030;2023-04-08T02:01:22;38.77;36.46;44.63;;
72028;Laerm;59781;52.090;5.030;2023-04-08T02:03:52;39.03;36.69;43.29;;
72028;Laerm;59781;52.090;5.030;2023-04-08T02:06:25;38.47;36.68;43.16;;
72028;Laerm;59781;52.090;5.030;2023-04-08T02:08:55;38.48;36.54;42.18;;
72028;Laerm;59781;52.090;5.030;2023-04-08T02:11:21;38.44;36.58;39.89;;
72028;Laerm;59781;52.090;5.030;2023-04-08T02:13:48;39.07;37.09;44.92;;
72028;Laerm;59781;52.090;5.030;2023-04-08T02:16:18;39.13;36.66;50.34;;
72028;Laerm;59781;52.090;5.030;2023-04-08T02:18:58;39.00;36.77;43.74;;
72028;Laerm;59781;52.090;5.030;2023-04-08T02:21:48;38.69;36.78;42.38;;
72028;Laerm;59781;52.090;5.030;2023-04-08T02:31:20;38.67;36.72;42.88;;
72028;Laerm;59781;52.090;5.030;2023-04-08T02:33:50;38.69;36.58;44.68;;
72028;Laerm;59781;52.090;5.030;2023-04-08T02:36:20;39.60;36.50;45.41;;
72028;Laerm;59781;52.090;5.030;2023-04-08T02:38:48;38.50;36.58;53.59;;
72028;Laerm;59781;52.090;5.030;2023-04-08T02:41:16;39.30;36.74;47.41;;
72028;Laerm;59781;52.090;5.030;2023-04-08T02:43:41;38.28;36.82;41.71;;
72028;Laerm;59781;52.090;5.030;2023-04-08T02:46:10;39.89;36.73;47.64;;
72028;Laerm;59781;52.090;5.030;2023-04-08T02:48:36;38.95;36.32;45.19;;
72028;Laerm;59781;52.090;5.030;2023-04-08T02:51:02;38.62;36.70;41.84;;
72028;Laerm;59781;52.090;5.030;2023-04-08T02:53:28;39.21;36.81;45.64;;
72028;Laerm;59781;52.090;5.030;2023-04-08T02:55:53;39.01;36.72;44.67;;
72028;Laerm;59781;52.090;5.030;2023-04-08T02:58:19;39.01;37.07;44.72;;
72028;Laerm;59781;52.090;5.030;2023-04-08T03:00:45;39.14;36.58;43.36;;
72028;Laerm;59781;52.090;5.030;2023-04-08T03:03:11;39.07;37.11;42.32;;
72028;Laerm;59781;52.090;5.030;2023-04-08T03:05:36;38.52;36.89;41.64;;
72028;Laerm;59781;52.090;5.030;2023-04-08T03:08:02;38.38;36.67;40.16;;
72028;Laerm;59781;52.090;5.030;2023-04-08T03:10:28;38.53;36.69;58.20;;
72028;Laerm;59781;52.090;5.030;2023-04-08T03:12:54;38.63;36.89;41.54;;
72028;Laerm;59781;52.090;5.030;2023-04-08T03:15:19;40.27;37.12;46.69;;
72028;Laerm;59781;52.090;5.030;2023-04-08T03:17:45;39.02;36.93;43.35;;
72028;Laerm;59781;52.090;5.030;2023-04-08T03:20:11;39.16;36.98;43.54;;
72028;Laerm;59781;52.090;5.030;2023-04-08T03:22:37;40.39;36.74;48.50;;
72028;Laerm;59781;52.090;5.030;2023-04-08T03:25:03;38.72;36.78;41.59;;
72028;Laerm;59781;52.090;5.030;2023-04-08T03:27:29;38.64;36.81;43.95;;
72028;Laerm;59781;52.090;5.030;2023-04-08T03:29:54;38.83;36.72;43.04;;
72028;Laerm;59781;52.090;5.030;2023-04-08T03:32:22;38.30;36.64;41.07;;
72028;Laerm;59781;52.090;5.030;2023-04-08T03:34:48;38.64;36.60;45.90;;
72028;Laerm;59781;52.090;5.030;2023-04-08T03:37:18;38.68;36.72;44.26;;
72028;Laerm;59781;52.090;5.030;2023-04-08T03:39:44;39.02;36.73;44.83;;
72028;Laerm;59781;52.090;5.030;2023-04-08T03:42:12;38.76;36.81;43.68;;
72028;Laerm;59781;52.090;5.030;2023-04-08T03:44:38;38.37;36.70;40.00;;
72028;Laerm;59781;52.090;5.030;2023-04-08T03:47:03;38.66;36.59;44.13;;
72028;Laerm;59781;52.090;5.030;2023-04-08T03:49:29;38.87;36.85;44.67;;
72028;Laerm;59781;52.090;5.030;2023-04-08T03:51:55;38.64;36.63;42.65;;
72028;Laerm;59781;52.090;5.030;2023-04-08T03:54:21;39.19;36.83;57.65;;
72028;Laerm;59781;52.090;5.030;2023-04-08T03:56:48;38.71;36.49;46.34;;
72028;Laerm;59781;52.090;5.030;2023-04-08T03:59:14;39.15;36.68;43.87;;
72028;Laerm;59781;52.090;5.030;2023-04-08T04:01:40;38.71;36.66;45.24;;
72028;Laerm;59781;52.090;5.030;2023-04-08T04:04:06;39.09;37.01;44.37;;
72028;Laerm;59781;52.090;5.030;2023-04-08T04:06:31;38.60;36.86;42.42;;
72028;Laerm;59781;52.090;5.030;2023-04-08T04:08:57;39.40;37.03;45.50;;
72028;Laerm;59781;52.090;5.030;2023-04-08T04:11:23;39.53;37.01;46.86;;
72028;Laerm;59781;52.090;5.030;2023-04-08T04:13:49;39.72;37.09;46.98;;
72028;Laerm;59781;52.090;5.030;2023-04-08T04:16:14;39.48;36.65;48.07;;
72028;Laerm;59781;52.090;5.030;2023-04-08T04:18:40;39.50;36.71;49.86;;
72028;Laerm;59781;52.090;5.030;2023-04-08T04:21:06;39.67;36.95;51.76;;
72028;Laerm;59781;52.090;5.030;2023-04-08T04:23:32;40.12;36.83;51.75;;
72028;Laerm;59781;52.090;5.030;2023-04-08T04:25:58;41.11;37.09;55.77;;
72028;Laerm;59781;52.090;5.030;2023-04-08T04:28:23;47.46;37.61;60.52;;
72028;Laerm;59781;52.090;5.030;2023-04-08T04:30:51;40.45;36.92;54.62;;
72028;Laerm;59781;52.090;5.030;2023-04-08T04:33:17;39.82;36.83;51.62;;
72028;Laerm;59781;52.090;5.030;2023-04-08T04:35:43;39.75;36.68;50.06;;
72028;Laerm;59781;52.090;5.030;2023-04-08T04:38:08;48.06;36.51;69.25;;
72028;Laerm;59781;52.090;5.030;2023-04-08T04:40:39;41.40;37.14;65.02;;
72028;Laerm;59781;52.090;5.030;2023-04-08T04:43:05;39.20;36.88;46.49;;
72028;Laerm;59781;52.090;5.030;2023-04-08T04:45:31;38.87;36.92;44.92;;
72028;Laerm;59781;52.090;5.030;2023-04-08T04:47:57;38.61;37.03;51.70;;
72028;Laerm;59781;52.090;5.030;2023-04-08T04:50:22;38.96;37.00;43.39;;
72028;Laerm;59781;52.090;5.030;2023-04-08T04:52:48;39.64;36.99;52.91;;
72028;Laerm;59781;52.090;5.030;2023-04-08T04:55:14;38.90;36.67;43.39;;
72028;Laerm;59781;52.090;5.030;2023-04-08T04:57:40;39.31;36.85;44.99;;
72028;Laerm;59781;52.090;5.030;2023-04-08T05:00:07;38.89;36.58;57.73;;
72028;Laerm;59781;52.090;5.030;2023-04-08T05:02:34;48.02;36.73;66.10;;
72028;Laerm;59781;52.090;5.030;2023-04-08T05:04:59;45.31;36.92;65.78;;
72028;Laerm;59781;52.090;5.030;2023-04-08T05:07:25;49.75;36.23;68.39;;
72028;Laerm;59781;52.090;5.030;2023-04-08T05:09:51;44.83;36.95;68.11;;
72028;Laerm;59781;52.090;5.030;2023-04-08T05:12:17;46.14;36.95;61.00;;
72028;Laerm;59781;52.090;5.030;2023-04-08T05:14:45;46.22;37.02;62.95;;
72028;Laerm;59781;52.090;5.030;2023-04-08T05:17:11;48.84;36.68;70.04;;
72028;Laerm;59781;52.090;5.030;2023-04-08T05:19:36;45.43;36.76;60.08;;
72028;Laerm;59781;52.090;5.030;2023-04-08T05:22:02;42.70;36.69;58.04;;
72028;Laerm;59781;52.090;5.030;2023-04-08T05:24:28;40.15;37.03;52.68;;
72028;Laerm;59781;52.090;5.030;2023-04-08T05:26:54;42.06;37.05;53.31;;
72028;Laerm;59781;52.090;5.030;2023-04-08T05:29:19;41.57;37.31;67.80;;
72028;Laerm;59781;52.090;5.030;2023-04-08T05:31:46;45.71;37.33;55.51;;
72028;Laerm;59781;52.090;5.030;2023-04-08T05:34:12;39.53;37.48;52.03;;
72028;Laerm;59781;52.090;5.030;2023-04-08T05:36:38;40.55;37.31;56.87;;
72028;Laerm;59781;52.090;5.030;2023-04-08T05:39:03;39.90;37.37;50.64;;
72028;Laerm;59781;52.090;5.030;2023-04-08T05:41:29;41.19;37.48;49.92;;
72028;Laerm;59781;52.090;5.030;2023-04-08T05:43:55;40.36;37.57;52.04;;
72028;Laerm;59781;52.090;5.030;2023-04-08T05:46:21;42.99;38.25;49.91;;
72028;Laerm;59781;52.090;5.030;2023-04-08T05:48:46;41.02;37.39;46.16;;
72028;Laerm;59781;52.090;5.030;2023-04-08T05:51:14;41.48;37.68;54.54;;
72028;Laerm;59781;52.090;5.030;2023-04-08T05:53:40;40.56;36.99;45.29;;
72028;Laerm;59781;52.090;5.030;2023-04-08T05:56:06;41.68;37.54;55.21;;
72028;Laerm;59781;52.090;5.030;2023-04-08T05:58:32;44.98;38.19;70.66;;
72028;Laerm;59781;52.090;5.030;2023-04-08T06:00:58;42.34;38.40;65.06;;
72028;Laerm;59781;52.090;5.030;2023-04-08T06:03:23;43.74;38.21;60.80;;
72028;Laerm;59781;52.090;5.030;2023-04-08T06:05:49;44.67;38.10;67.58;;
72028;Laerm;59781;52.090;5.030;2023-04-08T06:08:15;42.57;38.72;52.80;;
72028;Laerm;59781;52.090;5.030;2023-04-08T07:49:18;49.92;40.08;67.55;;
72028;Laerm;59781;52.090;5.030;2023-04-08T07:55:39;46.30;40.89;67.53;;
72028;Laerm;59781;52.090;5.030;2023-04-08T08:18:57;50.74;40.74;81.56;;
72028;Laerm;59781;52.090;5.030;2023-04-08T08:31:42;44.88;40.49;55.36;;
72028;Laerm;59781;52.090;5.030;2023-04-08T08:34:23;44.70;40.46;58.79;;
72028;Laerm;59781;52.090;5.030;2023-04-08T08:36:49;47.88;40.61;70.87;;
72028;Laerm;59781;52.090;5.030;2023-04-08T08:39:14;54.48;40.99;87.32;;
72028;Laerm;59781;52.090;5.030;2023-04-08T08:41:40;45.64;40.91;55.49;;
72028;Laerm;59781;52.090;5.030;2023-04-08T08:44:07;44.72;40.04;61.46;;
72028;Laerm;59781;52.090;5.030;2023-04-08T08:46:33;47.47;40.19;79.26;;
72028;Laerm;59781;52.090;5.030;2023-04-08T08:48:59;47.28;41.42;67.70;;
72028;Laerm;59781;52.090;5.030;2023-04-08T08:51:27;46.27;41.07;66.75;;
72028;Laerm;59781;52.090;5.030;2023-04-08T08:53:53;46.20;41.14;66.95;;
72028;Laerm;59781;52.090;5.030;2023-04-08T08:56:18;46.23;41.02;61.20;;
72028;Laerm;59781;52.090;5.030;2023-04-08T08:58:44;46.17;40.64;61.19;;
72028;Laerm;59781;52.090;5.030;2023-04-08T09:01:34;50.67;40.05;82.52;;
72028;Laerm;59781;52.090;5.030;2023-04-08T09:04:20;45.00;40.19;63.76;;
72028;Laerm;59781;52.090;5.030;2023-04-08T09:06:49;48.94;40.09;72.25;;
72028;Laerm;59781;52.090;5.030;2023-04-08T09:12:12;45.85;40.92;68.50;;
72028;Laerm;59781;52.090;5.030;2023-04-08T09:14:39;44.78;39.86;62.06;;
72028;Laerm;59781;52.090;5.030;2023-04-08T09:17:05;46.27;39.39;62.63;;
72028;Laerm;59781;52.090;5.030;2023-04-08T09:19:30;44.26;39.39;53.54;;
72028;Laerm;59781;52.090;5.030;2023-04-08T09:22:09;45.34;40.08;54.72;;
72028;Laerm;59781;52.090;5.030;2023-04-08T09:24:36;48.30;39.91;74.10;;
72028;Laerm;59781;52.090;5.030;2023-04-08T09:27:05;56.07;41.14;76.31;;
72028;Laerm;59781;52.090;5.030;2023-04-08T09:29:31;50.62;40.43;73.30;;
72028;Laerm;59781;52.090;5.030;2023-04-08T09:32:00;48.72;41.32;72.17;;
72028;Laerm;59781;52.090;5.030;2023-04-08T09:34:29;45.65;41.14;59.32;;
72028;Laerm;59781;52.090;5.030;2023-04-08T09:36:56;53.77;41.33;75.53;;
72028;Laerm;59781;52.090;5.030;2023-04-08T09:39:22;51.33;41.53;64.21;;
72028;Laerm;59781;52.090;5.030;2023-04-08T09:41:50;50.04;41.54;70.06;;
72028;Laerm;59781;52.090;5.030;2023-04-08T09:44:19;47.01;42.40;67.67;;
72028;Laerm;59781;52.090;5.030;2023-04-08T09:47:07;51.74;41.65;82.01;;
72028;Laerm;59781;52.090;5.030;2023-04-08T09:49:46;46.67;41.23;66.47;;
72028;Laerm;59781;52.090;5.030;2023-04-08T09:52:24;44.88;40.22;52.88;;
72028;Laerm;59781;52.090;5.030;2023-04-08T09:55:07;45.40;40.58;58.70;;
72028;Laerm;59781;52.090;5.030;2023-04-08T09:57:57;49.37;40.72;79.44;;
72028;Laerm;59781;52.090;5.030;2023-04-08T10:00:32;45.21;40.55;59.25;;
72028;Laerm;59781;52.090;5.030;2023-04-08T10:03:28;50.42;40.21;65.90;;
72028;Laerm;59781;52.090;5.030;2023-04-08T10:06:00;49.62;40.94;71.25;;
72028;Laerm;59781;52.090;5.030;2023-04-08T10:08:26;47.22;40.96;58.18;;
72028;Laerm;59781;52.090;5.030;2023-04-08T10:10:54;45.36;40.77;57.63;;
72028;Laerm;59781;52.090;5.030;2023-04-08T10:13:23;46.29;40.52;56.26;;
72028;Laerm;59781;52.090;5.030;2023-04-08T10:15:50;50.38;40.63;63.01;;
72028;Laerm;59781;52.090;5.030;2023-04-08T10:20:47;57.13;41.58;76.93;;
72028;Laerm;59781;52.090;5.030;2023-04-08T10:23:16;48.39;40.79;72.46;;
72028;Laerm;59781;52.090;5.030;2023-04-08T10:25:45;52.18;40.91;79.17;;
72028;Laerm;59781;52.090;5.030;2023-04-08T10:33:23;51.16;40.80;69.43;;
72028;Laerm;59781;52.090;5.030;2023-04-08T10:36:11;45.29;40.62;60.78;;
72028;Laerm;59781;52.090;5.030;2023-04-08T10:38:37;47.87;41.00;61.16;;
72028;Laerm;59781;52.090;5.030;2023-04-08T10:41:04;51.11;42.15;67.53;;
72028;Laerm;59781;52.090;5.030;2023-04-08T10:43:33;47.76;41.21;72.78;;
72028;Laerm;59781;52.090;5.030;2023-04-08T10:46:00;51.62;40.68;75.21;;
72028;Laerm;59781;52.090;5.030;2023-04-08T10:48:26;53.45;40.47;80.64;;
72028;Laerm;59781;52.090;5.030;2023-04-08T10:50:57;55.79;40.70;75.10;;
72028;Laerm;59781;52.090;5.030;2023-04-08T10:53:35;49.79;41.09;61.78;;
72028;Laerm;59781;52.090;5.030;2023-04-08T10:56:13;51.91;40.72;82.72;;
72028;Laerm;59781;52.090;5.030;2023-04-08T10:58:51;44.21;39.72;55.81;;
72028;Laerm;59781;52.090;5.030;2023-04-08T11:01:18;48.38;39.94;60.46;;
72028;Laerm;59781;52.090;5.030;2023-04-08T11:03:44;42.97;39.04;58.22;;
72028;Laerm;59781;52.090;5.030;2023-04-08T11:06:10;43.47;39.63;54.91;;
72028;Laerm;59781;52.090;5.030;2023-04-08T11:08:37;57.64;40.85;77.05;;
72028;Laerm;59781;52.090;5.030;2023-04-08T11:11:05;53.82;40.56;74.51;;
72028;Laerm;59781;52.090;5.030;2023-04-08T11:13:43;46.00;40.12;65.23;;
72028;Laerm;59781;52.090;5.030;2023-04-08T11:16:10;45.52;40.41;64.77;;
72028;Laerm;59781;52.090;5.030;2023-04-08T11:18:39;43.31;39.76;55.70;;
72028;Laerm;59781;52.090;5.030;2023-04-08T11:21:09;46.90;40.50;61.47;;
72028;Laerm;59781;52.090;5.030;2023-04-08T11:23:36;47.91;40.57;61.01;;
72028;Laerm;59781;52.090;5.030;2023-04-08T11:26:03;45.53;40.68;59.85;;
72028;Laerm;59781;52.090;5.030;2023-04-08T11:28:29;44.97;40.18;57.04;;
72028;Laerm;59781;52.090;5.030;2023-04-08T11:30:56;45.00;39.83;55.71;;
72028;Laerm;59781;52.090;5.030;2023-04-08T11:33:25;51.65;40.42;72.43;;
72028;Laerm;59781;52.090;5.030;2023-04-08T11:35:54;43.68;40.12;51.56;;
72028;Laerm;59781;52.090;5.030;2023-04-08T11:38:23;46.91;40.82;61.18;;
72028;Laerm;59781;52.090;5.030;2023-04-08T11:40:57;48.64;40.79;63.26;;
72028;Laerm;59781;52.090;5.030;2023-04-08T11:43:24;44.13;39.94;55.20;;
72028;Laerm;59781;52.090;5.030;2023-04-08T11:45:51;44.29;40.36;50.37;;
72028;Laerm;59781;52.090;5.030;2023-04-08T11:48:17;55.43;40.41;76.76;;
72028;Laerm;59781;52.090;5.030;2023-04-08T11:50:44;46.83;40.20;66.66;;
72028;Laerm;59781;52.090;5.030;2023-04-08T11:53:20;44.92;39.96;67.38;;
72028;Laerm;59781;52.090;5.030;2023-04-08T11:55:47;44.90;41.20;52.90;;
72028;Laerm;59781;52.090;5.030;2023-04-08T11:58:13;57.31;40.25;87.90;;
72028;Laerm;59781;52.090;5.030;2023-04-08T12:00:39;50.29;41.04;72.69;;
72028;Laerm;59781;52.090;5.030;2023-04-08T12:03:06;48.73;40.02;73.38;;
72028;Laerm;59781;52.090;5.030;2023-04-08T12:05:32;47.40;39.67;59.69;;
72028;Laerm;59781;52.090;5.030;2023-04-08T12:07:58;43.48;39.22;54.55;;
72028;Laerm;59781;52.090;5.030;2023-04-08T12:10:24;44.58;39.66;60.90;;
72028;Laerm;59781;52.090;5.030;2023-04-08T12:12:50;46.42;40.82;55.55;;
72028;Laerm;59781;52.090;5.030;2023-04-08T12:15:16;44.64;40.41;55.44;;
72028;Laerm;59781;52.090;5.030;2023-04-08T12:17:43;44.92;40.06;54.53;;
72028;Laerm;59781;52.090;5.030;2023-04-08T12:20:10;46.12;39.33;65.55;;
72028;Laerm;59781;52.090;5.030;2023-04-08T12:22:37;45.31;40.76;61.95;;
72028;Laerm;59781;52.090;5.030;2023-04-08T12:25:03;45.11;41.22;54.39;;
72028;Laerm;59781;52.090;5.030;2023-04-08T12:27:30;44.41;40.18;53.50;;
72028;Laerm;59781;52.090;5.030;2023-04-08T12:29:58;46.02;40.48;67.79;;
72028;Laerm;59781;52.090;5.030;2023-04-08T12:32:24;50.03;40.42;73.50;;
72028;Laerm;59781;52.090;5.030;2023-04-08T12:34:51;46.03;39.68;71.97;;
72028;Laerm;59781;52.090;5.030;2023-04-08T12:37:17;44.56;39.75;58.70;;
72028;Laerm;59781;52.090;5.030;2023-04-08T12:39:42;50.20;41.05;67.32;;
72028;Laerm;59781;52.090;5.030;2023-04-08T12:42:08;55.27;41.23;69.54;;
72028;Laerm;59781;52.090;5.030;2023-04-08T12:44:34;48.04;39.86;60.81;;
72028;Laerm;59781;52.090;5.030;2023-04-08T12:46:59;44.27;39.56;55.22;;
72028;Laerm;59781;52.090;5.030;2023-04-08T12:49:25;45.37;40.31;58.57;;
72028;Laerm;59781;52.090;5.030;2023-04-08T12:51:52;44.42;40.30;58.78;;
72028;Laerm;59781;52.090;5.030;2023-04-08T12:54:18;44.87;40.15;58.80;;
72028;Laerm;59781;52.090;5.030;2023-04-08T12:56:44;45.62;40.75;55.25;;
72028;Laerm;59781;52.090;5.030;2023-04-08T12:59:11;47.08;40.05;75.31;;
72028;Laerm;59781;52.090;5.030;2023-04-08T13:01:36;54.45;40.68;81.62;;
72028;Laerm;59781;52.090;5.030;2023-04-08T13:04:02;45.21;40.39;54.69;;
72028;Laerm;59781;52.090;5.030;2023-04-08T13:06:28;45.24;40.34;56.92;;
72028;Laerm;59781;52.090;5.030;2023-04-08T13:08:54;46.22;40.25;68.37;;
72028;Laerm;59781;52.090;5.030;2023-04-08T13:11:19;50.66;40.69;66.00;;
72028;Laerm;59781;52.090;5.030;2023-04-08T13:13:45;47.08;40.57;58.69;;
72028;Laerm;59781;52.090;5.030;2023-04-08T13:16:13;52.77;42.34;63.92;;
72028;Laerm;59781;52.090;5.030;2023-04-08T13:18:41;48.65;41.93;61.10;;
72028;Laerm;59781;52.090;5.030;2023-04-08T13:21:07;45.95;41.08;64.97;;
72028;Laerm;59781;52.090;5.030;2023-04-08T13:23:33;47.04;40.79;60.38;;
72028;Laerm;59781;52.090;5.030;2023-04-08T13:25:59;52.18;43.21;67.86;;
72028;Laerm;59781;52.090;5.030;2023-04-08T13:28:25;45.85;40.10;54.80;;
72028;Laerm;59781;52.090;5.030;2023-04-08T13:30:51;44.02;39.97;54.73;;
72028;Laerm;59781;52.090;5.030;2023-04-08T13:33:18;47.52;42.19;65.45;;
72028;Laerm;59781;52.090;5.030;2023-04-08T13:35:44;48.26;41.41;68.47;;
72028;Laerm;59781;52.090;5.030;2023-04-08T13:38:09;46.08;41.10;59.07;;
72028;Laerm;59781;52.090;5.030;2023-04-08T13:40:35;49.51;42.48;62.09;;
72028;Laerm;59781;52.090;5.030;2023-04-08T13:43:01;46.86;40.51;66.61;;
72028;Laerm;59781;52.090;5.030;2023-04-08T13:45:27;44.57;40.95;59.13;;
72028;Laerm;59781;52.090;5.030;2023-04-08T13:47:53;45.14;40.89;59.19;;
72028;Laerm;59781;52.090;5.030;2023-04-08T13:50:19;46.81;40.61;61.32;;
72028;Laerm;59781;52.090;5.030;2023-04-08T13:52:44;50.90;42.17;62.75;;
72028;Laerm;59781;52.090;5.030;2023-04-08T13:55:11;46.44;40.67;64.85;;
72028;Laerm;59781;52.090;5.030;2023-04-08T13:57:36;45.75;41.45;57.05;;
72028;Laerm;59781;52.090;5.030;2023-04-08T14:00:02;45.78;40.84;56.26;;
72028;Laerm;59781;52.090;5.030;2023-04-08T14:02:35;52.42;41.48;72.73;;
72028;Laerm;59781;52.090;5.030;2023-04-08T14:05:01;46.38;41.34;60.73;;
72028;Laerm;59781;52.090;5.030;2023-04-08T14:07:27;50.96;41.10;71.25;;
72028;Laerm;59781;52.090;5.030;2023-04-08T14:09:53;45.61;40.99;56.16;;
72028;Laerm;59781;52.090;5.030;2023-04-08T14:12:18;61.19;42.46;78.67;;
72028;Laerm;59781;52.090;5.030;2023-04-08T14:14:44;47.90;40.76;65.32;;
72028;Laerm;59781;52.090;5.030;2023-04-08T14:17:10;46.71;41.27;58.25;;
72028;Laerm;59781;52.090;5.030;2023-04-08T14:19:36;48.18;41.05;65.38;;
72028;Laerm;59781;52.090;5.030;2023-04-08T14:22:01;55.11;40.26;70.61;;
72028;Laerm;59781;52.090;5.030;2023-04-08T14:24:27;46.27;41.66;53.63;;
72028;Laerm;59781;52.090;5.030;2023-04-08T14:26:53;45.99;41.54;56.04;;
72028;Laerm;59781;52.090;5.030;2023-04-08T14:29:18;46.69;41.64;66.63;;
72028;Laerm;59781;52.090;5.030;2023-04-08T14:31:44;50.76;40.84;73.84;;
72028;Laerm;59781;52.090;5.030;2023-04-08T14:34:10;47.58;42.28;56.10;;
72028;Laerm;59781;52.090;5.030;2023-04-08T14:36:36;53.53;41.51;69.21;;
72028;Laerm;59781;52.090;5.030;2023-04-08T14:39:01;48.02;40.45;63.73;;
72028;Laerm;59781;52.090;5.030;2023-04-08T14:41:27;55.62;42.42;72.40;;
72028;Laerm;59781;52.090;5.030;2023-04-08T14:43:53;49.67;42.64;64.92;;
72028;Laerm;59781;52.090;5.030;2023-04-08T14:46:20;46.80;41.47;60.32;;
72028;Laerm;59781;52.090;5.030;2023-04-08T14:48:46;46.49;40.49;60.46;;
72028;Laerm;59781;52.090;5.030;2023-04-08T14:51:12;47.02;40.53;58.72;;
72028;Laerm;59781;52.090;5.030;2023-04-08T14:56:34;50.86;40.11;83.57;;
72028;Laerm;59781;52.090;5.030;2023-04-08T14:59:00;60.02;40.14;75.30;;
72028;Laerm;59781;52.090;5.030;2023-04-08T15:01:26;51.73;41.29;66.09;;
72028;Laerm;59781;52.090;5.030;2023-04-08T15:03:53;46.35;40.54;57.09;;
72028;Laerm;59781;52.090;5.030;2023-04-08T15:06:19;51.53;41.75;64.60;;
72028;Laerm;59781;52.090;5.030;2023-04-08T15:08:46;48.71;41.49;65.31;;
72028;Laerm;59781;52.090;5.030;2023-04-08T15:11:11;48.06;40.84;69.97;;
72028;Laerm;59781;52.090;5.030;2023-04-08T15:13:37;47.85;41.00;69.59;;
72028;Laerm;59781;52.090;5.030;2023-04-08T15:16:03;50.62;40.64;69.53;;
72028;Laerm;59781;52.090;5.030;2023-04-08T15:18:29;47.20;40.83;65.78;;
72028;Laerm;59781;52.090;5.030;2023-04-08T15:20:54;47.30;40.20;65.43;;
72028;Laerm;59781;52.090;5.030;2023-04-08T15:23:20;48.99;41.49;66.14;;
72028;Laerm;59781;52.090;5.030;2023-04-08T15:25:46;48.38;40.18;70.75;;
72028;Laerm;59781;52.090;5.030;2023-04-08T15:28:13;47.05;40.73;66.16;;
72028;Laerm;59781;52.090;5.030;2023-04-08T15:30:38;50.48;40.01;75.70;;
72028;Laerm;59781;52.090;5.030;2023-04-08T15:33:04;47.51;40.26;64.97;;
72028;Laerm;59781;52.090;5.030;2023-04-08T15:35:30;45.81;40.15;60.64;;
72028;Laerm;59781;52.090;5.030;2023-04-08T15:37:57;49.44;40.71;65.26;;
72028;Laerm;59781;52.090;5.030;2023-04-08T15:40:23;49.31;40.20;65.43;;
72028;Laerm;59781;52.090;5.030;2023-04-08T15:42:48;46.46;39.66;65.08;;
72028;Laerm;59781;52.090;5.030;2023-04-08T15:45:14;54.82;40.57;79.87;;
72028;Laerm;59781;52.090;5.030;2023-04-08T15:47:40;54.79;39.99;81.92;;
72028;Laerm;59781;52.090;5.030;2023-04-08T15:50:06;47.05;39.91;59.25;;
72028;Laerm;59781;52.090;5.030;2023-04-08T15:52:32;49.56;40.21;63.40;;
72028;Laerm;59781;52.090;5.030;2023-04-08T15:54:59;50.31;39.94;62.72;;
72028;Laerm;59781;52.090;5.030;2023-04-08T15:57:27;43.38;38.41;53.33;;
72028;Laerm;59781;52.090;5.030;2023-04-08T15:59:53;45.36;39.57;58.55;;
72028;Laerm;59781;52.090;5.030;2023-04-08T16:02:19;47.34;38.56;67.65;;
72028;Laerm;59781;52.090;5.030;2023-04-08T16:04:45;47.06;38.89;77.23;;
72028;Laerm;59781;52.090;5.030;2023-04-08T16:07:11;53.23;39.83;84.78;;
72028;Laerm;59781;52.090;5.030;2023-04-08T16:09:37;43.13;39.91;53.04;;
72028;Laerm;59781;52.090;5.030;2023-04-08T16:12:03;44.09;39.54;54.98;;
72028;Laerm;59781;52.090;5.030;2023-04-08T16:14:29;43.65;40.11;55.59;;
72028;Laerm;59781;52.090;5.030;2023-04-08T16:16:55;42.74;39.39;55.47;;
72028;Laerm;59781;52.090;5.030;2023-04-08T16:19:21;43.58;39.64;54.77;;
72028;Laerm;59781;52.090;5.030;2023-04-08T16:21:47;43.84;39.58;54.57;;
72028;Laerm;59781;52.090;5.030;2023-04-08T16:24:13;49.49;39.40;63.35;;